Time;durP1;ratioP1;P1;durP2;ratioP2;P2;SDS_P1;SDS_P2;PMS_P1;PMS_P2;Temp;Humidity;BMP_temperature;BMP_pressure;BME280_temperature;BME280_humidity;BME280_pressure;Samples;Min_cycle;Max_cycle;Signal;HPM_P1;HPM_P2
2022/04/06 00:00:23;;;;;;;25.50;11.50;;;9.20;99.90;;;;;;5017554;28;20022;-83
2022/04/06 00:02:49;;;;;;;27.95;12.73;;;9.10;99.90;;;;;;5016137;28;20090;-83
2022/04/06 00:05:14;;;;;;;30.02;11.43;;;9.20;99.90;;;;;;5018017;28;20024;-83
2022/04/06 00:07:41;;;;;;;30.58;11.52;;;9.20;99.90;;;;;;5015950;28;20030;-82
2022/04/06 00:10:08;;;;;;;25.45;11.50;;;9.20;99.90;;;;;;5012751;28;20030;-81
2022/04/06 00:12:35;;;;;;;24.58;12.18;;;9.20;99.90;;;;;;5014536;28;20026;-81
2022/04/06 00:15:02;;;;;;;20.70;11.02;;;9.20;99.90;;;;;;5016312;28;20037;-82
2022/04/06 00:17:28;;;;;;;29.75;11.27;;;9.30;99.90;;;;;;5016685;28;20073;-82
2022/04/06 00:19:53;;;;;;;24.52;10.05;;;9.20;99.90;;;;;;5016193;28;20026;-81
2022/04/06 00:22:19;;;;;;;25.20;11.10;;;9.20;99.90;;;;;;5016067;28;20026;-82
2022/04/06 00:24:45;;;;;;;23.95;10.48;;;9.20;99.90;;;;;;5016232;28;20117;-82
2022/04/06 00:27:10;;;;;;;25.95;11.20;;;9.20;99.90;;;;;;5014251;28;20355;-82
2022/04/06 00:29:36;;;;;;;26.65;10.52;;;9.30;99.90;;;;;;5015658;28;20033;-81
2022/04/06 00:32:02;;;;;;;28.13;10.85;;;9.20;99.90;;;;;;5016520;28;20024;-81
2022/04/06 00:37:12;;;;;;;18.90;9.48;;;9.20;99.90;;;;;;5030831;28;20068;-82
2022/04/06 00:39:37;;;;;;;28.98;10.60;;;9.20;99.90;;;;;;5013533;28;20022;-82
2022/04/06 00:42:04;;;;;;;26.55;9.70;;;9.30;99.90;;;;;;5010865;28;20026;-82
2022/04/06 00:44:34;;;;;;;24.67;10.25;;;9.20;99.90;;;;;;5009563;28;20018;-79
2022/04/06 00:47:04;;;;;;;23.40;10.70;;;9.20;99.90;;;;;;4994420;28;20015;-81
2022/04/06 00:49:31;;;;;;;25.75;9.43;;;9.20;99.90;;;;;;4991224;28;20045;-82
2022/04/06 00:52:02;;;;;;;26.30;9.98;;;9.20;99.90;;;;;;4995019;28;20023;-84
2022/04/06 00:54:30;;;;;;;26.30;9.43;;;9.20;99.90;;;;;;4995600;28;20065;-82
2022/04/06 00:56:56;;;;;;;27.05;10.60;;;9.20;99.90;;;;;;4994956;28;20034;-82
2022/04/06 00:59:22;;;;;;;28.40;9.45;;;9.20;99.90;;;;;;4993395;28;20023;-80
2022/04/06 01:01:50;;;;;;;23.77;9.30;;;9.20;99.90;;;;;;4992177;28;20053;-81
2022/04/06 01:04:16;;;;;;;19.40;10.07;;;9.20;99.90;;;;;;4993228;28;20019;-82
2022/04/06 01:06:43;;;;;;;22.58;8.85;;;9.20;99.90;;;;;;4995671;28;20121;-82
2022/04/06 01:09:09;;;;;;;21.98;9.05;;;9.10;99.90;;;;;;4995831;28;20044;-81
2022/04/06 01:11:35;;;;;;;24.02;9.65;;;9.20;99.90;;;;;;4994781;28;20082;-82
2022/04/06 01:14:02;;;;;;;21.67;9.52;;;9.10;99.90;;;;;;4995119;28;20086;-81
2022/04/06 01:16:28;;;;;;;23.25;9.82;;;9.10;99.90;;;;;;4995566;28;20030;-80
2022/04/06 01:18:55;;;;;;;22.75;9.45;;;9.20;99.90;;;;;;5012241;28;20023;-81
2022/04/06 01:21:21;;;;;;;18.38;9.20;;;9.20;99.90;;;;;;4994904;28;20133;-82
2022/04/06 01:23:48;;;;;;;22.80;10.55;;;9.20;99.90;;;;;;4996206;28;20034;-83
2022/04/06 01:26:14;;;;;;;19.60;8.73;;;9.10;99.90;;;;;;4996307;28;20022;-83
2022/04/06 01:28:41;;;;;;;22.77;9.35;;;9.10;99.90;;;;;;4993092;28;20069;-81
2022/04/06 01:31:07;;;;;;;21.65;9.60;;;9.10;99.90;;;;;;5008032;28;20109;-79
2022/04/06 01:33:33;;;;;;;17.90;8.63;;;9.20;99.90;;;;;;4993551;28;20034;-83
2022/04/06 01:36:00;;;;;;;21.35;9.98;;;9.10;99.90;;;;;;5008023;28;20099;-81
2022/04/06 01:38:27;;;;;;;22.70;8.32;;;9.10;99.90;;;;;;4989059;28;20019;-81
2022/04/06 01:40:54;;;;;;;20.80;7.90;;;9.10;99.90;;;;;;4990180;28;20023;-81
2022/04/06 01:43:20;;;;;;;18.83;8.13;;;9.10;99.90;;;;;;4989611;28;20026;-82
2022/04/06 01:45:47;;;;;;;20.75;7.60;;;9.10;99.90;;;;;;5010331;28;20052;-82
2022/04/06 01:48:14;;;;;;;21.73;8.07;;;9.10;99.90;;;;;;5013833;28;20018;-80
2022/04/06 01:53:24;;;;;;;16.02;8.18;;;9.10;99.90;;;;;;5032157;28;20057;-82
2022/04/06 01:55:50;;;;;;;16.27;8.35;;;9.10;99.90;;;;;;5011528;28;20030;-80
2022/04/06 01:58:17;;;;;;;19.92;8.13;;;9.10;99.90;;;;;;5018587;28;20013;-81
2022/04/06 02:00:43;;;;;;;17.42;8.50;;;9.00;99.90;;;;;;5016913;28;20026;-80
2022/04/06 02:03:10;;;;;;;18.23;9.35;;;9.00;99.90;;;;;;5013955;28;20029;-80
2022/04/06 02:05:38;;;;;;;17.27;7.55;;;9.00;99.90;;;;;;5013606;28;20064;-80
2022/04/06 02:08:04;;;;;;;17.75;7.53;;;9.00;99.90;;;;;;5012868;28;20056;-80
2022/04/06 02:10:31;;;;;;;18.77;8.43;;;9.00;99.90;;;;;;5015786;28;20049;-80
2022/04/06 02:12:58;;;;;;;16.42;8.27;;;9.00;99.90;;;;;;5013901;28;20025;-81
2022/04/06 02:15:27;;;;;;;17.45;8.05;;;9.00;99.90;;;;;;5012182;28;20030;-79
2022/04/06 02:17:53;;;;;;;17.70;8.05;;;9.00;99.90;;;;;;5013401;28;20018;-80
2022/04/06 02:20:19;;;;;;;22.08;8.75;;;9.00;99.90;;;;;;5014538;28;20089;-82
2022/04/06 02:22:45;;;;;;;15.57;7.80;;;9.00;99.90;;;;;;5014573;28;20030;-80
2022/04/06 02:25:15;;;;;;;21.55;9.35;;;9.00;99.90;;;;;;5030795;28;20033;-81
2022/04/06 02:27:51;;;;;;;21.25;7.93;;;9.00;99.90;;;;;;5014072;28;20531;-81
2022/04/06 02:30:18;;;;;;;16.85;7.65;;;9.00;99.90;;;;;;5013024;28;20060;-79
2022/04/06 02:32:44;;;;;;;24.48;8.75;;;9.00;99.90;;;;;;5014508;28;20026;-82
2022/04/06 02:35:10;;;;;;;17.73;7.38;;;9.00;99.90;;;;;;5015815;28;20006;-83
2022/04/06 02:37:36;;;;;;;17.08;7.80;;;9.00;99.90;;;;;;5020953;28;20098;-80
2022/04/06 02:40:02;;;;;;;21.13;7.65;;;8.90;99.90;;;;;;5020395;28;20022;-82
2022/04/06 02:42:28;;;;;;;21.13;7.47;;;9.00;99.90;;;;;;5017470;28;20022;-81
2022/04/06 02:44:53;;;;;;;19.38;7.40;;;9.00;99.90;;;;;;5004840;28;20026;-81
2022/04/06 02:47:20;;;;;;;17.27;7.82;;;8.90;99.90;;;;;;4994216;28;20018;-80
2022/04/06 02:49:45;;;;;;;18.63;7.63;;;9.00;99.90;;;;;;4991776;28;20125;-81
2022/04/06 02:52:11;;;;;;;15.52;7.28;;;9.00;99.90;;;;;;4994869;28;20026;-78
2022/04/06 02:54:36;;;;;;;19.85;7.45;;;8.90;99.90;;;;;;4993943;28;20022;-81
2022/04/06 02:57:03;;;;;;;23.05;8.20;;;8.90;99.90;;;;;;4993249;28;20030;-80
2022/04/06 02:59:28;;;;;;;15.35;6.22;;;9.00;99.90;;;;;;4995190;28;20034;-81
2022/04/06 03:01:54;;;;;;;18.42;6.50;;;9.00;99.90;;;;;;4996052;28;20038;-79
2022/04/06 03:04:20;;;;;;;17.77;6.80;;;9.00;99.90;;;;;;4994175;28;20030;-80
2022/04/06 03:06:45;;;;;;;18.63;7.45;;;9.00;99.90;;;;;;4993656;28;20034;-80
2022/04/06 03:09:11;;;;;;;18.27;6.20;;;9.00;99.90;;;;;;4990513;28;20030;-82
2022/04/06 03:11:36;;;;;;;20.77;6.88;;;8.90;99.90;;;;;;4994316;28;20027;-78
2022/04/06 03:14:03;;;;;;;15.68;5.80;;;9.00;99.90;;;;;;4995267;28;20152;-80
2022/04/06 03:16:28;;;;;;;16.92;6.20;;;9.00;99.90;;;;;;4996538;28;20037;-80
2022/04/06 03:18:54;;;;;;;16.02;6.75;;;9.00;99.90;;;;;;5012802;28;20023;-82
2022/04/06 03:21:20;;;;;;;14.93;6.32;;;8.90;99.90;;;;;;4998069;28;20022;-77
2022/04/06 03:23:46;;;;;;;13.25;5.45;;;9.00;99.90;;;;;;5002578;28;20031;-81
2022/04/06 03:26:12;;;;;;;14.88;5.65;;;9.00;99.90;;;;;;4994647;28;20026;-79
2022/04/06 03:28:38;;;;;;;11.25;5.40;;;9.00;99.90;;;;;;4995014;28;20018;-81
2022/04/06 03:31:05;;;;;;;14.95;5.32;;;8.90;99.90;;;;;;4994583;28;20053;-80
2022/04/06 03:33:31;;;;;;;15.43;5.18;;;8.90;99.90;;;;;;4996013;28;20029;-81
2022/04/06 03:35:58;;;;;;;14.25;4.88;;;8.90;99.90;;;;;;4994130;28;20046;-79
2022/04/06 03:38:24;;;;;;;18.77;5.45;;;8.90;99.90;;;;;;4994210;28;20030;-79
2022/04/06 03:40:49;;;;;;;12.38;5.10;;;8.90;99.90;;;;;;5009959;28;20022;-79
2022/04/06 03:43:15;;;;;;;16.77;4.95;;;9.00;99.90;;;;;;4994425;28;20018;-79
2022/04/06 03:45:41;;;;;;;14.02;4.90;;;8.90;99.90;;;;;;5025819;28;20060;-81
2022/04/06 03:48:07;;;;;;;18.70;5.75;;;9.00;99.90;;;;;;5010278;28;20037;-80
2022/04/06 03:50:32;;;;;;;13.43;5.00;;;8.90;99.90;;;;;;5010717;28;20030;-81
2022/04/06 03:52:58;;;;;;;14.80;5.35;;;9.00;99.90;;;;;;5011729;28;20441;-79
2022/04/06 03:55:23;;;;;;;12.82;5.22;;;9.00;99.90;;;;;;5011463;28;20030;-79
2022/04/06 03:57:49;;;;;;;19.33;5.57;;;8.90;99.90;;;;;;5030784;28;20030;-81
2022/04/06 04:00:15;;;;;;;8.90;4.72;;;9.00;99.90;;;;;;5013425;28;20037;-82
2022/04/06 04:02:41;;;;;;;11.93;6.18;;;8.90;99.90;;;;;;5029738;28;20057;-81
2022/04/06 04:05:07;;;;;;;13.48;4.90;;;8.90;99.90;;;;;;5014497;28;20033;-79
2022/04/06 04:07:37;;;;;;;13.82;5.57;;;8.90;99.90;;;;;;5013134;28;20030;-80
2022/04/06 04:10:05;;;;;;;14.25;5.75;;;8.90;99.90;;;;;;5012466;28;20010;-83
2022/04/06 04:12:30;;;;;;;9.02;5.32;;;8.90;99.90;;;;;;5029013;28;20068;-79
2022/04/06 04:14:56;;;;;;;13.00;5.28;;;8.90;99.90;;;;;;5013526;28;20025;-80
2022/04/06 04:17:22;;;;;;;22.65;6.18;;;8.90;99.90;;;;;;5012214;28;20033;-79
2022/04/06 04:19:48;;;;;;;14.70;6.47;;;8.90;99.90;;;;;;5011036;28;20054;-79
2022/04/06 04:22:14;;;;;;;14.07;5.63;;;8.90;99.90;;;;;;5007694;28;20026;-77
2022/04/06 04:24:40;;;;;;;10.80;5.43;;;8.90;99.90;;;;;;5006128;28;20029;-78
2022/04/06 04:27:06;;;;;;;14.90;5.95;;;8.90;99.90;;;;;;5008577;28;20026;-80
2022/04/06 04:29:32;;;;;;;11.02;5.72;;;8.90;99.90;;;;;;5012937;28;20102;-79
2022/04/06 04:31:58;;;;;;;14.93;6.47;;;8.80;99.90;;;;;;5011282;28;20030;-80
2022/04/06 04:34:24;;;;;;;10.75;5.72;;;8.80;99.90;;;;;;5008277;28;20087;-80
2022/04/06 04:36:49;;;;;;;15.13;5.68;;;8.80;99.90;;;;;;5028547;28;20033;-82
2022/04/06 04:39:15;;;;;;;11.73;5.30;;;8.80;99.90;;;;;;5005178;28;20021;-79
2022/04/06 04:41:41;;;;;;;17.13;6.15;;;8.80;99.90;;;;;;5020886;28;20022;-79
2022/04/06 04:44:06;;;;;;;8.35;5.15;;;8.80;99.90;;;;;;5021240;28;20022;-77
2022/04/06 04:46:32;;;;;;;14.52;6.03;;;8.80;99.90;;;;;;4986323;28;20069;-79
2022/04/06 04:48:58;;;;;;;15.05;6.95;;;8.70;99.90;;;;;;4986612;28;20076;-80
2022/04/06 04:51:23;;;;;;;15.32;6.60;;;8.70;99.90;;;;;;5007026;28;20037;-81
2022/04/06 04:53:49;;;;;;;11.10;5.53;;;8.70;99.90;;;;;;4990857;28;20026;-78
2022/04/06 04:56:16;;;;;;;10.40;5.90;;;8.70;99.90;;;;;;4986949;28;20030;-79
2022/04/06 04:58:43;;;;;;;9.57;5.40;;;8.70;99.90;;;;;;4988221;28;20066;-76
2022/04/06 05:01:08;;;;;;;14.65;5.45;;;8.80;99.90;;;;;;4988188;28;20037;-81
2022/04/06 05:03:34;;;;;;;12.70;4.97;;;8.70;99.90;;;;;;5008216;28;20019;-80
2022/04/06 05:05:59;;;;;;;12.50;5.43;;;8.60;99.90;;;;;;4991344;28;20034;-79
2022/04/06 05:08:26;;;;;;;11.63;4.95;;;8.70;99.90;;;;;;5010152;28;20037;-80
2022/04/06 05:10:52;;;;;;;11.05;4.72;;;8.60;99.90;;;;;;5009268;28;20030;-78
2022/04/06 05:13:17;;;;;;;15.60;4.90;;;8.70;99.90;;;;;;5010065;28;20094;-79
2022/04/06 05:15:44;;;;;;;11.93;4.35;;;8.70;99.90;;;;;;5010713;28;20102;-80
2022/04/06 05:18:10;;;;;;;13.90;4.68;;;8.70;99.90;;;;;;5010597;28;20032;-80
2022/04/06 05:20:35;;;;;;;12.60;5.28;;;8.60;99.90;;;;;;5006934;28;20479;-80
2022/04/06 05:23:01;;;;;;;12.65;5.07;;;8.70;99.90;;;;;;5009339;28;20033;-79
2022/04/06 05:25:27;;;;;;;10.77;4.70;;;8.80;99.90;;;;;;5004397;28;20027;-80
2022/04/06 05:27:55;;;;;;;12.35;4.50;;;8.80;99.90;;;;;;4993025;28;20026;-79
2022/04/06 05:30:23;;;;;;;12.57;4.57;;;8.90;99.90;;;;;;5009374;28;20059;-80
2022/04/06 05:32:51;;;;;;;9.70;3.65;;;8.80;99.90;;;;;;5008330;28;20101;-79
2022/04/06 05:35:17;;;;;;;11.02;4.00;;;8.90;99.90;;;;;;4992495;28;20039;-78
2022/04/06 05:37:44;;;;;;;10.23;4.22;;;8.90;99.90;;;;;;5001941;28;20378;-78
2022/04/06 05:40:12;;;;;;;12.20;3.85;;;8.90;99.90;;;;;;4999830;28;20057;-79
2022/04/06 05:42:38;;;;;;;12.18;3.72;;;9.00;99.90;;;;;;4985374;28;20037;-80
2022/04/06 05:45:06;;;;;;;10.43;3.90;;;9.00;99.90;;;;;;4995176;28;20022;-78
2022/04/06 05:47:34;;;;;;;8.63;4.22;;;8.90;99.90;;;;;;5019167;28;20025;-79
2022/04/06 05:49:59;;;;;;;8.70;3.30;;;8.90;99.90;;;;;;5020317;28;20022;-78
2022/04/06 05:52:25;;;;;;;13.25;3.30;;;9.00;99.90;;;;;;5023106;28;20036;-80
2022/04/06 05:54:53;;;;;;;13.15;3.65;;;8.90;99.90;;;;;;5002479;28;20034;-79
2022/04/06 05:57:20;;;;;;;10.65;2.97;;;9.00;99.90;;;;;;5000708;28;20037;-80
2022/04/06 05:59:46;;;;;;;9.18;3.50;;;9.00;99.90;;;;;;5018323;28;20088;-80
2022/04/06 06:02:12;;;;;;;15.38;4.15;;;8.90;99.90;;;;;;5022437;28;20029;-79
2022/04/06 06:04:38;;;;;;;10.77;3.60;;;9.00;99.90;;;;;;5001266;28;20057;-79
2022/04/06 06:07:07;;;;;;;9.25;3.40;;;9.00;99.90;;;;;;5023212;28;20033;-80
2022/04/06 06:09:34;;;;;;;10.43;3.63;;;9.10;99.90;;;;;;5004274;28;20030;-78
2022/04/06 06:12:00;;;;;;;13.60;3.60;;;9.10;99.90;;;;;;5021173;28;20094;-81
2022/04/06 06:14:27;;;;;;;11.68;3.72;;;9.00;99.90;;;;;;5004098;28;20121;-80
2022/04/06 06:16:52;;;;;;;14.20;3.30;;;9.00;99.90;;;;;;5019961;28;20038;-78
2022/04/06 06:19:18;;;;;;;10.63;3.72;;;9.10;99.90;;;;;;5020167;28;20500;-78
2022/04/06 06:21:44;;;;;;;13.05;3.45;;;9.10;99.90;;;;;;5021553;28;20034;-78
2022/04/06 06:24:10;;;;;;;10.95;3.63;;;9.20;99.90;;;;;;5006013;28;20033;-78
2022/04/06 06:26:37;;;;;;;8.18;3.50;;;9.10;99.90;;;;;;5003936;28;20041;-79
2022/04/06 06:29:04;;;;;;;13.50;3.67;;;9.20;99.90;;;;;;5000978;28;20058;-77
2022/04/06 06:31:31;;;;;;;10.93;3.50;;;9.20;99.90;;;;;;5023597;28;20041;-78
2022/04/06 06:33:58;;;;;;;10.57;3.95;;;9.20;99.90;;;;;;5005978;28;20038;-80
2022/04/06 06:36:23;;;;;;;11.88;4.93;;;9.20;99.90;;;;;;5022590;28;20052;-80
2022/04/06 06:38:51;;;;;;;13.75;3.95;;;9.20;99.90;;;;;;5021292;28;20022;-81
2022/04/06 06:41:17;;;;;;;10.98;4.03;;;9.20;99.90;;;;;;5023889;28;20113;-78
2022/04/06 06:43:44;;;;;;;9.27;3.60;;;9.20;99.90;;;;;;5010549;28;20334;-79
2022/04/06 06:46:10;;;;;;;10.90;4.53;;;9.20;99.90;;;;;;5010529;28;20022;-80
2022/04/06 06:48:37;;;;;;;11.73;4.13;;;9.20;99.90;;;;;;5007371;28;20043;-80
2022/04/06 06:51:03;;;;;;;10.15;3.80;;;9.30;99.90;;;;;;5009187;28;20019;-80
2022/04/06 06:53:29;;;;;;;11.52;3.88;;;9.30;99.90;;;;;;5008840;28;20026;-80
2022/04/06 06:55:54;;;;;;;12.65;4.00;;;9.40;99.90;;;;;;5008414;28;20121;-80
2022/04/06 06:58:21;;;;;;;10.95;3.53;;;9.30;99.90;;;;;;5015906;28;20053;-78
2022/04/06 07:00:46;;;;;;;11.88;3.90;;;9.30;99.90;;;;;;5013716;28;20034;-79
2022/04/06 07:03:12;;;;;;;8.00;3.28;;;9.30;99.90;;;;;;4999789;28;20118;-78
2022/04/06 07:05:38;;;;;;;9.13;3.22;;;9.30;99.90;;;;;;5000691;28;20095;-82
2022/04/06 07:08:04;;;;;;;9.75;2.90;;;9.40;99.90;;;;;;4998216;28;20032;-78
2022/04/06 07:10:30;;;;;;;10.02;3.30;;;9.40;99.90;;;;;;5010968;28;20030;-80
2022/04/06 07:12:56;;;;;;;11.13;3.28;;;9.40;99.90;;;;;;4993625;28;20064;-79
2022/04/06 07:15:26;;;;;;;12.77;3.85;;;9.30;99.90;;;;;;5011023;28;20122;-78
2022/04/06 07:17:56;;;;;;;12.05;3.38;;;9.30;99.90;;;;;;5011316;28;20512;-78
2022/04/06 07:20:29;;;;;;;11.38;2.95;;;9.30;99.90;;;;;;5009960;28;20019;-80
2022/04/06 07:22:54;;;;;;;10.73;3.33;;;9.20;99.90;;;;;;5011504;28;20022;-79
2022/04/06 07:25:20;;;;;;;10.07;3.30;;;9.30;99.90;;;;;;4992305;28;20027;-77
2022/04/06 07:27:46;;;;;;;9.27;3.40;;;9.20;99.90;;;;;;5006371;28;20029;-81
2022/04/06 07:30:13;;;;;;;10.65;3.45;;;9.20;99.90;;;;;;5005887;28;20021;-78
2022/04/06 07:32:40;;;;;;;12.35;3.25;;;9.20;99.90;;;;;;4990541;28;20030;-78
2022/04/06 07:35:07;;;;;;;11.75;3.80;;;9.30;99.90;;;;;;5008043;28;20030;-78
2022/04/06 07:37:53;;;;;;;7.75;3.33;;;9.20;99.90;;;;;;5006684;28;20560;-80
2022/04/06 07:40:21;;;;;;;8.45;3.40;;;9.20;99.90;;;;;;4991486;28;20441;-81
2022/04/06 07:42:49;;;;;;;10.38;3.10;;;9.20;99.90;;;;;;4990551;28;20121;-78
2022/04/06 07:45:18;;;;;;;7.15;2.97;;;9.30;99.90;;;;;;5003394;28;20433;-77
2022/04/06 07:47:49;;;;;;;10.60;3.38;;;9.30;99.90;;;;;;5029847;28;20026;-81
2022/04/06 07:50:15;;;;;;;8.32;3.40;;;9.20;99.90;;;;;;5028914;28;20022;-80
2022/04/06 07:52:42;;;;;;;9.50;3.17;;;9.20;99.90;;;;;;5027326;28;20022;-82
2022/04/06 07:55:09;;;;;;;12.45;4.03;;;9.20;99.90;;;;;;5027569;28;20036;-80
2022/04/06 07:57:36;;;;;;;7.22;3.42;;;9.10;99.90;;;;;;5059192;23;20049;-78
2022/04/06 08:00:06;;;;;;;12.93;3.95;;;9.10;99.90;;;;;;5020619;28;20029;-77
2022/04/06 08:02:32;;;;;;;11.10;4.38;;;9.10;99.90;;;;;;5038908;28;20022;-77
2022/04/06 08:04:57;;;;;;;8.65;3.20;;;9.20;99.90;;;;;;5021028;28;20137;-76
2022/04/06 08:07:24;;;;;;;9.30;3.25;;;9.20;99.90;;;;;;5020648;28;20057;-75
2022/04/06 08:09:50;;;;;;;10.13;3.30;;;9.20;99.90;;;;;;5020656;28;20071;-77
2022/04/06 08:12:15;;;;;;;10.02;3.35;;;9.20;99.90;;;;;;5038598;28;20097;-78
2022/04/06 08:14:41;;;;;;;11.48;3.70;;;9.30;99.90;;;;;;5037669;28;20029;-77
2022/04/06 08:17:07;;;;;;;8.07;3.50;;;9.40;99.90;;;;;;5019485;28;20060;-78
2022/04/06 08:19:32;;;;;;;6.65;3.10;;;9.40;99.90;;;;;;5036765;28;20025;-78
2022/04/06 08:21:58;;;;;;;9.38;3.20;;;9.50;99.90;;;;;;5039228;28;20100;-77
2022/04/06 08:24:23;;;;;;;10.07;3.83;;;9.40;99.90;;;;;;5038302;28;20106;-79
2022/04/06 08:26:49;;;;;;;10.73;3.35;;;9.40;99.90;;;;;;5037460;28;20396;-78
2022/04/06 08:29:15;;;;;;;7.50;3.08;;;9.40;99.90;;;;;;5020463;28;20092;-78
2022/04/06 08:31:41;;;;;;;7.05;3.20;;;9.40;99.90;;;;;;5039698;28;20036;-76
2022/04/06 08:34:07;;;;;;;9.60;3.25;;;9.50;99.90;;;;;;5024006;28;20033;-78
2022/04/06 08:36:33;;;;;;;5.60;3.05;;;9.50;99.90;;;;;;5046969;28;20115;-76
2022/04/06 08:38:59;;;;;;;7.25;3.20;;;9.40;99.90;;;;;;5047627;28;20049;-78
2022/04/06 08:41:26;;;;;;;6.93;2.67;;;9.50;99.90;;;;;;5036885;28;20049;-78
2022/04/06 08:43:52;;;;;;;6.82;3.70;;;9.40;99.90;;;;;;5054629;28;20030;-77
2022/04/06 08:46:20;;;;;;;5.72;3.25;;;9.40;99.90;;;;;;5045156;28;20036;-80
2022/04/06 08:48:53;;;;;;;12.23;3.80;;;9.40;99.90;;;;;;5047496;28;20025;-78
2022/04/06 08:51:20;;;;;;;8.80;3.10;;;9.40;99.90;;;;;;5035518;28;20022;-76
2022/04/06 08:53:47;;;;;;;8.77;2.85;;;9.40;99.90;;;;;;5035784;28;20028;-77
2022/04/06 08:56:14;;;;;;;7.55;3.45;;;9.50;99.90;;;;;;5035997;28;20185;-77
2022/04/06 08:58:40;;;;;;;10.25;2.80;;;9.40;99.90;;;;;;5028670;28;20037;-76
2022/04/06 09:01:08;;;;;;;7.05;2.55;;;9.50;99.90;;;;;;5042354;28;20018;-77
2022/04/06 09:03:37;;;;;;;7.40;3.03;;;9.50;99.90;;;;;;5043452;28;20026;-78
2022/04/06 09:06:09;;;;;;;9.15;2.75;;;9.50;99.90;;;;;;5045904;28;20029;-77
2022/04/06 09:08:43;;;;;;;10.82;3.08;;;9.50;99.90;;;;;;5043659;28;20030;-78
2022/04/06 09:11:11;;;;;;;8.75;2.75;;;9.50;99.90;;;;;;5025129;28;20409;-77
2022/04/06 09:13:42;;;;;;;7.72;2.38;;;9.50;99.90;;;;;;5024017;28;20083;-77
2022/04/06 09:16:13;;;;;;;6.60;2.55;;;9.50;99.90;;;;;;5022855;28;20063;-78
2022/04/06 09:18:41;;;;;;;6.30;3.03;;;9.50;99.90;;;;;;5021605;28;20103;-76
2022/04/06 09:21:09;;;;;;;9.35;2.53;;;9.60;99.90;;;;;;5037776;28;20025;-78
2022/04/06 09:23:35;;;;;;;7.10;2.70;;;9.70;99.90;;;;;;5018104;28;20032;-77
2022/04/06 09:26:06;;;;;;;5.97;2.20;;;9.80;99.90;;;;;;5017324;28;20021;-77
2022/04/06 09:28:32;;;;;;;8.82;2.60;;;9.90;99.90;;;;;;5035265;28;20021;-78
2022/04/06 09:30:58;;;;;;;6.88;2.58;;;10.10;99.90;;;;;;5035914;28;20037;-78
2022/04/06 09:33:28;;;;;;;6.95;2.20;;;10.10;99.90;;;;;;5036657;28;20404;-77
2022/04/06 09:35:58;;;;;;;9.65;2.75;;;10.30;99.90;;;;;;5037205;28;20018;-78
2022/04/06 09:38:29;;;;;;;5.93;2.13;;;10.40;99.90;;;;;;5036092;28;20492;-77
2022/04/06 09:41:02;;;;;;;6.55;2.17;;;10.60;99.90;;;;;;5036052;28;20024;-77
2022/04/06 09:43:32;;;;;;;8.70;2.13;;;10.70;99.90;;;;;;5035451;28;20108;-77
2022/04/06 09:49:19;;;;;;;7.32;1.65;;;10.70;99.90;;;;;;5035613;28;20094;-78
2022/04/06 09:51:50;;;;;;;5.47;2.05;;;10.50;99.90;;;;;;5017800;28;20036;-77
2022/04/06 09:54:16;;;;;;;5.75;1.70;;;10.50;99.90;;;;;;5018790;28;20432;-79
2022/04/06 09:56:43;;;;;;;4.50;2.00;;;10.40;99.90;;;;;;5020309;28;20112;-77
2022/04/06 09:59:11;;;;;;;8.27;1.83;;;10.40;99.90;;;;;;5037955;28;20077;-78
2022/04/06 10:01:52;;;;;;;4.60;1.77;;;10.30;99.90;;;;;;5037302;28;20080;-79
2022/04/06 10:04:23;;;;;;;6.38;1.38;;;10.30;99.90;;;;;;5019510;28;20032;-76
2022/04/06 10:06:49;;;;;;;3.65;1.63;;;10.30;99.90;;;;;;5019827;28;20094;-77
2022/04/06 10:09:14;;;;;;;7.55;2.00;;;10.30;99.90;;;;;;5036249;28;20079;-79
2022/04/06 10:11:40;;;;;;;5.05;1.80;;;10.30;99.90;;;;;;5037143;28;20026;-77
2022/04/06 10:14:09;;;;;;;5.93;1.60;;;10.30;99.90;;;;;;5036380;28;20033;-78
2022/04/06 10:16:36;;;;;;;5.95;1.65;;;10.40;99.90;;;;;;5018770;28;20038;-79
2022/04/06 10:19:05;;;;;;;5.25;2.10;;;10.40;99.90;;;;;;5040608;28;20018;-79
2022/04/06 10:21:41;;;;;;;6.97;1.95;;;10.30;99.90;;;;;;5041129;28;20041;-79
2022/04/06 10:24:46;;;;;;;4.38;1.75;;;10.20;99.90;;;;;;5023842;28;20389;-77
2022/04/06 10:27:38;;;;;;;4.93;1.58;;;10.20;99.90;;;;;;5041071;28;20033;-77
2022/04/06 10:30:14;;;;;;;11.93;1.98;;;10.10;99.90;;;;;;5027775;28;20040;-77
2022/04/06 10:32:42;;;;;;;6.38;2.05;;;10.00;99.90;;;;;;5040944;28;20049;-78
2022/04/06 10:35:27;;;;;;;4.03;1.40;;;10.00;99.90;;;;;;5022978;28;20055;-77
2022/04/06 10:37:56;;;;;;;6.28;1.52;;;10.00;99.90;;;;;;5040111;28;20167;-78
2022/04/06 10:40:22;;;;;;;4.07;1.77;;;10.00;99.90;;;;;;5022193;28;20025;-77
2022/04/06 10:42:48;;;;;;;8.10;1.70;;;10.00;99.90;;;;;;5020989;28;20489;-77
2022/04/06 10:45:27;;;;;;;3.72;1.40;;;10.00;99.90;;;;;;5040401;28;20210;-77
2022/04/06 10:48:16;;;;;;;8.75;1.45;;;10.00;99.90;;;;;;5021725;28;20508;-77
2022/04/06 10:50:46;;;;;;;5.10;1.52;;;10.10;99.90;;;;;;5021269;28;20049;-78
2022/04/06 10:53:21;;;;;;;5.25;1.75;;;10.20;99.90;;;;;;5024215;28;20029;-77
2022/04/06 10:56:16;;;;;;;5.75;1.77;;;10.30;99.90;;;;;;5021416;28;20069;-77
2022/04/06 10:59:06;;;;;;;4.00;1.55;;;10.40;99.90;;;;;;5021066;28;20130;-77
2022/04/06 11:01:33;;;;;;;4.53;1.35;;;10.40;99.90;;;;;;5021876;28;20041;-77
2022/04/06 11:04:25;;;;;;;6.60;1.92;;;10.40;99.90;;;;;;5022059;28;20021;-76
2022/04/06 11:06:56;;;;;;;3.35;1.85;;;10.40;99.90;;;;;;5038061;28;20443;-77
2022/04/06 11:12:19;;;;;;;5.28;1.25;;;10.50;99.90;;;;;;5040627;28;20040;-78
2022/04/06 11:14:47;;;;;;;3.85;1.48;;;10.50;99.90;;;;;;5002027;28;20102;-76
2022/04/06 11:17:45;;;;;;;4.05;1.80;;;10.50;99.90;;;;;;5001819;28;20033;-77
2022/04/06 11:20:34;;;;;;;6.95;1.40;;;10.60;99.90;;;;;;5002731;28;20112;-77
2022/04/06 11:23:00;;;;;;;10.30;2.15;;;10.60;99.90;;;;;;5018106;28;20237;-76
2022/04/06 11:25:28;;;;;;;5.93;2.10;;;10.60;99.90;;;;;;5019717;28;20041;-76
2022/04/06 11:28:04;;;;;;;7.43;2.28;;;10.50;99.90;;;;;;5001242;28;20541;-77
2022/04/06 11:30:32;;;;;;;5.03;1.40;;;10.50;99.90;;;;;;5019644;28;20030;-77
2022/04/06 11:33:00;;;;;;;7.35;2.28;;;10.50;99.90;;;;;;5020341;28;20101;-76
2022/04/06 11:35:31;;;;;;;2.72;1.30;;;10.50;99.90;;;;;;5003020;28;20032;-77
2022/04/06 11:37:57;;;;;;;3.80;1.52;;;10.60;99.90;;;;;;5001653;28;20457;-76
2022/04/06 11:40:25;;;;;;;7.75;2.00;;;10.60;99.90;;;;;;5019490;28;20097;-76
2022/04/06 11:42:53;;;;;;;6.80;2.08;;;10.60;99.90;;;;;;5002519;28;20022;-77
2022/04/06 11:45:24;;;;;;;5.13;2.13;;;10.70;99.90;;;;;;5013380;28;20044;-76
2022/04/06 11:47:56;;;;;;;4.55;1.85;;;10.70;99.90;;;;;;5037591;28;20018;-77
2022/04/06 11:50:34;;;;;;;8.52;2.28;;;10.60;99.90;;;;;;5037104;28;20040;-77
2022/04/06 11:53:04;;;;;;;6.05;2.30;;;10.50;99.90;;;;;;5038264;28;20029;-76
2022/04/06 11:55:47;;;;;;;5.45;1.70;;;10.40;99.90;;;;;;5020432;28;20049;-77
2022/04/06 11:58:40;;;;;;;5.85;2.20;;;10.30;99.90;;;;;;5037632;28;20408;-77
2022/04/06 12:01:11;;;;;;;6.10;2.03;;;10.30;99.90;;;;;;5039242;28;20025;-77
2022/04/06 12:03:39;;;;;;;7.68;2.28;;;10.30;99.90;;;;;;5039086;28;20020;-76
2022/04/06 12:06:14;;;;;;;4.55;2.22;;;10.20;99.90;;;;;;5038509;28;20025;-77
2022/04/06 12:08:43;;;;;;;4.70;2.05;;;10.10;99.90;;;;;;5020465;28;20488;-77
2022/04/06 12:11:09;;;;;;;6.65;2.45;;;10.00;99.90;;;;;;5038722;28;20111;-78
2022/04/06 12:13:44;;;;;;;6.55;2.40;;;10.00;99.90;;;;;;5020763;28;20025;-77
2022/04/06 12:16:10;;;;;;;4.90;2.13;;;10.00;99.90;;;;;;5038834;28;20029;-77
2022/04/06 12:18:39;;;;;;;6.78;2.08;;;10.00;99.90;;;;;;5038085;28;20104;-77
2022/04/06 12:21:24;;;;;;;7.22;2.40;;;10.00;99.90;;;;;;5038135;28;20017;-77
2022/04/06 12:23:51;;;;;;;6.88;2.00;;;10.00;99.90;;;;;;5038805;28;20036;-77
2022/04/06 12:26:17;;;;;;;4.30;2.20;;;10.00;99.90;;;;;;5020871;28;20432;-76
2022/04/06 12:28:48;;;;;;;6.93;2.22;;;9.90;99.90;;;;;;5038643;28;20096;-78
2022/04/06 12:31:13;;;;;;;6.05;2.15;;;9.90;99.90;;;;;;5029766;28;20061;-77
2022/04/06 12:33:48;;;;;;;5.72;2.70;;;9.90;99.90;;;;;;5036150;28;20029;-77
2022/04/06 12:36:16;;;;;;;9.48;3.60;;;9.80;99.90;;;;;;5033733;28;20026;-76
2022/04/06 12:39:10;;;;;;;6.22;2.33;;;9.80;99.90;;;;;;5029365;28;20052;-77
2022/04/06 12:41:55;;;;;;;6.25;2.40;;;9.80;99.90;;;;;;5020473;28;20417;-79
2022/04/06 12:44:21;;;;;;;4.53;2.33;;;9.90;99.90;;;;;;5035733;28;20071;-80
2022/04/06 12:46:50;;;;;;;5.57;3.08;;;9.90;99.90;;;;;;5018070;28;20025;-78
2022/04/06 12:49:35;;;;;;;5.95;2.67;;;10.00;99.90;;;;;;5036031;28;20025;-78
2022/04/06 12:52:18;;;;;;;7.00;2.80;;;10.00;99.90;;;;;;5036819;28;20021;-79
2022/04/06 12:55:05;;;;;;;5.38;2.58;;;10.00;99.90;;;;;;5036391;28;20028;-79
2022/04/06 12:57:34;;;;;;;7.90;2.80;;;10.00;99.90;;;;;;5036055;28;20033;-78
2022/04/06 13:00:08;;;;;;;6.97;2.95;;;10.10;99.90;;;;;;5035713;28;20047;-80
2022/04/06 13:02:45;;;;;;;10.38;3.88;;;10.10;99.90;;;;;;5036111;28;20021;-77
2022/04/06 13:05:16;;;;;;;4.15;2.60;;;10.20;99.90;;;;;;5036566;28;20449;-79